sensor_id;sensor_type;location;lat;lon;timestamp;temperature;humidity
55151;DHT22;41041;43.162;20.538;2022-09-09T00:02:04;486.60;2380.80
55151;DHT22;41041;43.162;20.538;2022-09-09T00:04:38;486.60;2380.80
55151;DHT22;41041;43.162;20.538;2022-09-09T00:12:41;461.70;2380.80
55151;DHT22;41041;43.162;20.538;2022-09-09T00:15:37;486.40;2380.80
55151;DHT22;41041;43.162;20.538;2022-09-09T00:23:30;461.60;2380.80
55151;DHT22;41041;43.162;20.538;2022-09-09T00:41:45;461.70;2380.80
55151;DHT22;41041;43.162;20.538;2022-09-09T00:44:37;461.50;2380.80
55151;DHT22;41041;43.162;20.538;2022-09-09T00:50:03;461.50;2380.80
55151;DHT22;41041;43.162;20.538;2022-09-09T00:52:32;461.40;2380.80
55151;DHT22;41041;43.162;20.538;2022-09-09T00:55:19;461.60;2380.80
55151;DHT22;41041;43.162;20.538;2022-09-09T00:57:51;461.60;2380.80
55151;DHT22;41041;43.162;20.538;2022-09-09T01:05:39;461.50;2380.80
55151;DHT22;41041;43.162;20.538;2022-09-09T01:08:33;461.40;2380.80
55151;DHT22;41041;43.162;20.538;2022-09-09T01:11:02;461.30;2380.80
55151;DHT22;41041;43.162;20.538;2022-09-09T01:13:35;461.20;2380.80
55151;DHT22;41041;43.162;20.538;2022-09-09T01:16:03;461.30;2380.80
55151;DHT22;41041;43.162;20.538;2022-09-09T01:18:51;461.40;2380.80
55151;DHT22;41041;43.162;20.538;2022-09-09T01:21:32;461.40;2380.80
55151;DHT22;41041;43.162;20.538;2022-09-09T01:24:15;461.40;2380.80
55151;DHT22;41041;43.162;20.538;2022-09-09T01:26:46;461.60;2380.80
55151;DHT22;41041;43.162;20.538;2022-09-09T01:29:16;461.50;2380.80
55151;DHT22;41041;43.162;20.538;2022-09-09T01:34:20;461.50;2380.80
55151;DHT22;41041;43.162;20.538;2022-09-09T01:39:24;461.30;2380.80
55151;DHT22;41041;43.162;20.538;2022-09-09T01:41:50;461.40;2380.80
55151;DHT22;41041;43.162;20.538;2022-09-09T01:44:17;461.40;2380.80
55151;DHT22;41041;43.162;20.538;2022-09-09T01:46:45;461.40;2380.80
55151;DHT22;41041;43.162;20.538;2022-09-09T01:49:11;461.40;2380.80
55151;DHT22;41041;43.162;20.538;2022-09-09T01:51:37;461.50;2380.80
55151;DHT22;41041;43.162;20.538;2022-09-09T01:54:05;461.30;2380.80
55151;DHT22;41041;43.162;20.538;2022-09-09T01:59:33;461.30;2380.80
55151;DHT22;41041;43.162;20.538;2022-09-09T02:02:11;461.10;2380.80
55151;DHT22;41041;43.162;20.538;2022-09-09T02:12:36;461.10;2380.80
55151;DHT22;41041;43.162;20.538;2022-09-09T02:15:11;461.30;2380.80
55151;DHT22;41041;43.162;20.538;2022-09-09T02:17:41;461.10;2380.80
55151;DHT22;41041;43.162;20.538;2022-09-09T02:20:12;461.40;2380.80
55151;DHT22;41041;43.162;20.538;2022-09-09T02:22:40;461.40;2380.80
55151;DHT22;41041;43.162;20.538;2022-09-09T02:25:10;461.10;2380.80
55151;DHT22;41041;43.162;20.538;2022-09-09T02:27:37;461.10;2380.80
55151;DHT22;41041;43.162;20.538;2022-09-09T02:30:04;461.10;2380.80
55151;DHT22;41041;43.162;20.538;2022-09-09T02:32:32;461.10;2380.80
55151;DHT22;41041;43.162;20.538;2022-09-09T02:35:04;461.00;2380.80
55151;DHT22;41041;43.162;20.538;2022-09-09T02:37:42;461.30;2380.80
55151;DHT22;41041;43.162;20.538;2022-09-09T02:40:12;461.50;2380.80
55151;DHT22;41041;43.162;20.538;2022-09-09T02:42:51;461.30;2380.80
55151;DHT22;41041;43.162;20.538;2022-09-09T02:45:20;461.10;2380.80
55151;DHT22;41041;43.162;20.538;2022-09-09T02:48:18;461.20;2380.80
55151;DHT22;41041;43.162;20.538;2022-09-09T02:53:17;461.00;2380.80
55151;DHT22;41041;43.162;20.538;2022-09-09T02:55:48;461.00;2380.80
55151;DHT22;41041;43.162;20.538;2022-09-09T02:58:18;461.10;2380.80
55151;DHT22;41041;43.162;20.538;2022-09-09T03:00:47;461.30;2380.80
55151;DHT22;41041;43.162;20.538;2022-09-09T03:03:13;461.20;2380.80
55151;DHT22;41041;43.162;20.538;2022-09-09T03:05:39;461.10;2380.80
55151;DHT22;41041;43.162;20.538;2022-09-09T03:08:05;461.00;2380.80
55151;DHT22;41041;43.162;20.538;2022-09-09T03:10:32;461.10;2380.80
55151;DHT22;41041;43.162;20.538;2022-09-09T03:12:58;460.90;2380.80
55151;DHT22;41041;43.162;20.538;2022-09-09T03:15:24;460.90;2380.80
55151;DHT22;41041;43.162;20.538;2022-09-09T03:17:54;460.80;2380.80
55151;DHT22;41041;43.162;20.538;2022-09-09T03:20:20;460.90;2380.80
55151;DHT22;41041;43.162;20.538;2022-09-09T03:22:46;460.90;2380.80
55151;DHT22;41041;43.162;20.538;2022-09-09T03:25:12;461.00;2380.80
55151;DHT22;41041;43.162;20.538;2022-09-09T03:27:37;461.00;2380.80
55151;DHT22;41041;43.162;20.538;2022-09-09T03:30:04;461.10;2380.80
55151;DHT22;41041;43.162;20.538;2022-09-09T03:32:30;461.10;2380.80
55151;DHT22;41041;43.162;20.538;2022-09-09T03:34:56;460.80;2380.80
55151;DHT22;41041;43.162;20.538;2022-09-09T03:37:22;461.00;2380.80
55151;DHT22;41041;43.162;20.538;2022-09-09T03:39:48;460.90;2380.80
55151;DHT22;41041;43.162;20.538;2022-09-09T03:42:14;461.00;2380.80
55151;DHT22;41041;43.162;20.538;2022-09-09T03:44:44;461.00;2380.80
55151;DHT22;41041;43.162;20.538;2022-09-09T03:47:12;461.00;2380.80
55151;DHT22;41041;43.162;20.538;2022-09-09T03:49:38;461.10;2380.80
55151;DHT22;41041;43.162;20.538;2022-09-09T03:52:04;461.00;2380.80
55151;DHT22;41041;43.162;20.538;2022-09-09T03:54:30;461.10;2380.80
55151;DHT22;41041;43.162;20.538;2022-09-09T03:56:55;461.30;2380.80
55151;DHT22;41041;43.162;20.538;2022-09-09T03:59:21;461.10;2380.80
55151;DHT22;41041;43.162;20.538;2022-09-09T04:01:48;461.30;2380.80
55151;DHT22;41041;43.162;20.538;2022-09-09T04:04:14;461.40;2380.80
55151;DHT22;41041;43.162;20.538;2022-09-09T04:06:39;461.60;2380.80
55151;DHT22;41041;43.162;20.538;2022-09-09T04:09:05;461.60;2380.80
55151;DHT22;41041;43.162;20.538;2022-09-09T04:11:31;461.60;2380.80
55151;DHT22;41041;43.162;20.538;2022-09-09T04:13:56;461.50;2380.80
55151;DHT22;41041;43.162;20.538;2022-09-09T04:16:22;461.30;2380.80
55151;DHT22;41041;43.162;20.538;2022-09-09T04:18:48;461.40;2380.80
55151;DHT22;41041;43.162;20.538;2022-09-09T04:21:14;461.60;2380.80
55151;DHT22;41041;43.162;20.538;2022-09-09T04:23:41;461.50;2380.80
55151;DHT22;41041;43.162;20.538;2022-09-09T04:26:07;461.60;2380.80
55151;DHT22;41041;43.162;20.538;2022-09-09T04:28:34;461.40;2380.80
55151;DHT22;41041;43.162;20.538;2022-09-09T04:31:06;461.50;2380.80
55151;DHT22;41041;43.162;20.538;2022-09-09T04:33:32;461.50;2380.80
55151;DHT22;41041;43.162;20.538;2022-09-09T04:35:57;461.50;2380.80
55151;DHT22;41041;43.162;20.538;2022-09-09T04:38:23;461.40;2380.80
55151;DHT22;41041;43.162;20.538;2022-09-09T04:40:50;461.30;2380.80
55151;DHT22;41041;43.162;20.538;2022-09-09T04:43:17;461.30;2380.80
55151;DHT22;41041;43.162;20.538;2022-09-09T04:45:47;461.20;2380.80
55151;DHT22;41041;43.162;20.538;2022-09-09T04:48:13;461.10;2380.80
55151;DHT22;41041;43.162;20.538;2022-09-09T04:50:39;461.20;2380.80
55151;DHT22;41041;43.162;20.538;2022-09-09T04:53:06;461.10;2380.80
55151;DHT22;41041;43.162;20.538;2022-09-09T04:55:32;461.10;2380.80
55151;DHT22;41041;43.162;20.538;2022-09-09T04:58:04;461.00;2380.80
55151;DHT22;41041;43.162;20.538;2022-09-09T05:00:31;461.10;2380.80
55151;DHT22;41041;43.162;20.538;2022-09-09T05:02:56;461.10;2380.80
55151;DHT22;41041;43.162;20.538;2022-09-09T05:05:22;461.30;2380.80
55151;DHT22;41041;43.162;20.538;2022-09-09T05:07:48;461.30;2380.80
55151;DHT22;41041;43.162;20.538;2022-09-09T05:10:14;461.30;2380.80
55151;DHT22;41041;43.162;20.538;2022-09-09T05:12:42;461.30;2380.80
55151;DHT22;41041;43.162;20.538;2022-09-09T05:15:08;461.30;2380.80
55151;DHT22;41041;43.162;20.538;2022-09-09T05:17:34;461.40;2380.80
55151;DHT22;41041;43.162;20.538;2022-09-09T05:20:00;461.30;2380.80
55151;DHT22;41041;43.162;20.538;2022-09-09T05:22:28;461.50;2380.80
55151;DHT22;41041;43.162;20.538;2022-09-09T05:24:54;461.70;2380.80
55151;DHT22;41041;43.162;20.538;2022-09-09T05:29:46;486.60;2380.80
55151;DHT22;41041;43.162;20.538;2022-09-09T05:34:40;486.70;2380.80
55151;DHT22;41041;43.162;20.538;2022-09-09T05:37:06;461.70;2380.80
55151;DHT22;41041;43.162;20.538;2022-09-09T05:39:33;461.70;2380.80
55151;DHT22;41041;43.162;20.538;2022-09-09T05:41:59;461.70;2380.80
55151;DHT22;41041;43.162;20.538;2022-09-09T05:44:25;461.50;2380.80
55151;DHT22;41041;43.162;20.538;2022-09-09T05:46:53;461.50;2380.80
55151;DHT22;41041;43.162;20.538;2022-09-09T05:49:19;461.40;2380.80
55151;DHT22;41041;43.162;20.538;2022-09-09T05:51:45;461.40;2380.80
55151;DHT22;41041;43.162;20.538;2022-09-09T05:54:11;461.50;2380.80
55151;DHT22;41041;43.162;20.538;2022-09-09T05:56:40;461.60;2380.80
55151;DHT22;41041;43.162;20.538;2022-09-09T05:59:07;461.40;2380.80
55151;DHT22;41041;43.162;20.538;2022-09-09T06:01:34;461.60;2380.80
55151;DHT22;41041;43.162;20.538;2022-09-09T06:04:01;461.70;2380.80
55151;DHT22;41041;43.162;20.538;2022-09-09T06:06:37;486.40;2380.80
55151;DHT22;41041;43.162;20.538;2022-09-09T06:09:06;461.70;2380.80
55151;DHT22;41041;43.162;20.538;2022-09-09T06:11:36;461.60;2380.80
55151;DHT22;41041;43.162;20.538;2022-09-09T06:14:03;461.70;2380.80
55151;DHT22;41041;43.162;20.538;2022-09-09T06:16:30;461.70;2380.80
55151;DHT22;41041;43.162;20.538;2022-09-09T06:18:58;486.70;2380.80
55151;DHT22;41041;43.162;20.538;2022-09-09T06:21:27;486.80;2380.80
55151;DHT22;41041;43.162;20.538;2022-09-09T06:23:53;486.70;2380.80
55151;DHT22;41041;43.162;20.538;2022-09-09T07:23:25;486.40;2380.80
55151;DHT22;41041;43.162;20.538;2022-09-09T07:25:51;461.60;2380.80
55151;DHT22;41041;43.162;20.538;2022-09-09T07:28:18;461.70;2380.80
55151;DHT22;41041;43.162;20.538;2022-09-09T07:30:56;461.70;2380.80
55151;DHT22;41041;43.162;20.538;2022-09-09T07:33:23;461.60;2380.80
55151;DHT22;41041;43.162;20.538;2022-09-09T07:35:49;461.70;2380.80
55151;DHT22;41041;43.162;20.538;2022-09-09T07:38:16;461.70;2380.80
55151;DHT22;41041;43.162;20.538;2022-09-09T07:40:41;486.40;2380.80
55151;DHT22;41041;43.162;20.538;2022-09-09T07:43:07;486.60;2380.80
55151;DHT22;41041;43.162;20.538;2022-09-09T07:45:34;486.60;2380.80
55151;DHT22;41041;43.162;20.538;2022-09-09T07:48:01;486.70;2380.80
55151;DHT22;41041;43.162;20.538;2022-09-09T07:50:28;486.90;2380.80
55151;DHT22;41041;43.162;20.538;2022-09-09T07:52:53;486.80;2380.80
55151;DHT22;41041;43.162;20.538;2022-09-09T07:55:21;486.80;2380.80
55151;DHT22;41041;43.162;20.538;2022-09-09T07:57:47;486.70;2380.80
55151;DHT22;41041;43.162;20.538;2022-09-09T08:00:13;486.70;2380.80
55151;DHT22;41041;43.162;20.538;2022-09-09T08:02:40;486.70;2380.80
55151;DHT22;41041;43.162;20.538;2022-09-09T08:05:06;486.80;2380.80
55151;DHT22;41041;43.162;20.538;2022-09-09T08:07:32;486.70;2380.80
55151;DHT22;41041;43.162;20.538;2022-09-09T08:09:58;486.70;2380.80
55151;DHT22;41041;43.162;20.538;2022-09-09T08:12:24;486.70;2380.80
55151;DHT22;41041;43.162;20.538;2022-09-09T08:14:49;486.70;2380.80
55151;DHT22;41041;43.162;20.538;2022-09-09T08:17:17;486.80;2380.80
55151;DHT22;41041;43.162;20.538;2022-09-09T08:19:43;486.80;2380.80
55151;DHT22;41041;43.162;20.538;2022-09-09T08:22:10;486.90;2380.80
55151;DHT22;41041;43.162;20.538;2022-09-09T08:24:35;486.80;2380.80
55151;DHT22;41041;43.162;20.538;2022-09-09T08:29:27;512.10;2380.80
55151;DHT22;41041;43.162;20.538;2022-09-09T08:31:57;487.20;2380.80
55151;DHT22;41041;43.162;20.538;2022-09-09T08:34:24;487.30;2380.80
55151;DHT22;41041;43.162;20.538;2022-09-09T08:36:53;512.00;2380.80
55151;DHT22;41041;43.162;20.538;2022-09-09T08:53:03;512.00;2380.80
55151;DHT22;41041;43.162;20.538;2022-09-09T08:58:28;512.50;2380.80
55151;DHT22;41041;43.162;20.538;2022-09-09T09:11:22;537.90;2406.40
55151;DHT22;41041;43.162;20.538;2022-09-09T09:14:03;537.90;2406.40
55151;DHT22;41041;43.162;20.538;2022-09-09T09:16:52;538.00;2406.40
55151;DHT22;41041;43.162;20.538;2022-09-09T09:19:19;538.20;2406.40
55151;DHT22;41041;43.162;20.538;2022-09-09T10:05:45;564.00;2432.00
55151;DHT22;41041;43.162;20.538;2022-09-09T10:08:13;563.90;2432.00
55151;DHT22;41041;43.162;20.538;2022-09-09T10:10:46;563.70;2432.00
55151;DHT22;41041;43.162;20.538;2022-09-09T10:23:55;564.00;2432.00
55151;DHT22;41041;43.162;20.538;2022-09-09T10:32:42;564.00;2432.00
55151;DHT22;41041;43.162;20.538;2022-09-09T10:48:58;589.10;2432.00
55151;DHT22;41041;43.162;20.538;2022-09-09T10:54:53;588.90;2432.00
55151;DHT22;41041;43.162;20.538;2022-09-09T10:57:34;588.90;2432.00
55151;DHT22;41041;43.162;20.538;2022-09-09T11:00:06;589.00;2432.00
55151;DHT22;41041;43.162;20.538;2022-09-09T11:02:40;588.80;2432.00
55151;DHT22;41041;43.162;20.538;2022-09-09T11:16:38;564.00;2432.00
55151;DHT22;41041;43.162;20.538;2022-09-09T11:19:30;564.00;2432.00
55151;DHT22;41041;43.162;20.538;2022-09-09T11:28:04;588.90;2432.00
55151;DHT22;41041;43.162;20.538;2022-09-09T11:38:45;563.80;2432.00
55151;DHT22;41041;43.162;20.538;2022-09-09T11:41:13;563.80;2432.00
55151;DHT22;41041;43.162;20.538;2022-09-09T11:46:07;564.10;2432.00
55151;DHT22;41041;43.162;20.538;2022-09-09T11:48:38;564.00;2432.00
55151;DHT22;41041;43.162;20.538;2022-09-09T11:51:09;564.00;2432.00
55151;DHT22;41041;43.162;20.538;2022-09-09T11:53:57;564.00;2432.00
55151;DHT22;41041;43.162;20.538;2022-09-09T11:56:44;588.80;2432.00
55151;DHT22;41041;43.162;20.538;2022-09-09T11:59:25;564.10;2432.00
55151;DHT22;41041;43.162;20.538;2022-09-09T12:02:03;588.90;2432.00
55151;DHT22;41041;43.162;20.538;2022-09-09T12:04:38;589.10;2432.00
55151;DHT22;41041;43.162;20.538;2022-09-09T12:12:37;589.10;2432.00
55151;DHT22;41041;43.162;20.538;2022-09-09T12:17:49;588.90;2432.00
55151;DHT22;41041;43.162;20.538;2022-09-09T12:20:20;588.90;2432.00
55151;DHT22;41041;43.162;20.538;2022-09-09T12:23:04;589.00;2432.00
55151;DHT22;41041;43.162;20.538;2022-09-09T12:25:49;589.10;2432.00
55151;DHT22;41041;43.162;20.538;2022-09-09T12:28:56;589.10;2432.00
55151;DHT22;41041;43.162;20.538;2022-09-09T12:37:35;589.20;2432.00
55151;DHT22;41041;43.162;20.538;2022-09-09T12:40:04;589.30;2432.00
55151;DHT22;41041;43.162;20.538;2022-09-09T12:42:30;589.30;2432.00
55151;DHT22;41041;43.162;20.538;2022-09-09T12:45:00;589.30;2432.00
55151;DHT22;41041;43.162;20.538;2022-09-09T12:50:27;589.50;2432.00
55151;DHT22;41041;43.162;20.538;2022-09-09T13:26:00;614.70;2432.00
55151;DHT22;41041;43.162;20.538;2022-09-09T13:28:28;614.60;2432.00
55151;DHT22;41041;43.162;20.538;2022-09-09T13:48:21;615.00;2432.00
55151;DHT22;41041;43.162;20.538;2022-09-09T14:00:44;614.50;2432.00
55151;DHT22;41041;43.162;20.538;2022-09-09T14:03:10;589.70;2432.00
55151;DHT22;41041;43.162;20.538;2022-09-09T14:05:36;589.60;2432.00
55151;DHT22;41041;43.162;20.538;2022-09-09T14:08:10;589.60;2432.00
55151;DHT22;41041;43.162;20.538;2022-09-09T16:23:36;589.60;2432.00
55151;DHT22;41041;43.162;20.538;2022-09-09T16:36:42;589.30;2432.00
55151;DHT22;41041;43.162;20.538;2022-09-09T16:39:10;589.30;2432.00
55151;DHT22;41041;43.162;20.538;2022-09-09T16:41:37;588.90;2432.00
55151;DHT22;41041;43.162;20.538;2022-09-09T17:23:32;563.70;2432.00
55151;DHT22;41041;43.162;20.538;2022-09-09T17:25:58;563.40;2432.00
55151;DHT22;41041;43.162;20.538;2022-09-09T17:30:59;563.50;2432.00
55151;DHT22;41041;43.162;20.538;2022-09-09T17:33:28;563.30;2432.00
55151;DHT22;41041;43.162;20.538;2022-09-09T18:54:29;537.70;2406.40
55151;DHT22;41041;43.162;20.538;2022-09-09T18:56:55;512.80;2380.80
55151;DHT22;41041;43.162;20.538;2022-09-09T18:59:22;512.50;2380.80
55151;DHT22;41041;43.162;20.538;2022-09-09T19:01:50;512.40;2380.80
55151;DHT22;41041;43.162;20.538;2022-09-09T19:04:17;512.20;2380.80
55151;DHT22;41041;43.162;20.538;2022-09-09T19:46:04;512.20;2380.80
55151;DHT22;41041;43.162;20.538;2022-09-09T19:48:35;512.10;2380.80
55151;DHT22;41041;43.162;20.538;2022-09-09T19:51:04;512.20;2380.80
55151;DHT22;41041;43.162;20.538;2022-09-09T19:53:34;512.10;2380.80
55151;DHT22;41041;43.162;20.538;2022-09-09T19:56:03;487.30;2380.80
55151;DHT22;41041;43.162;20.538;2022-09-09T19:58:30;487.30;2380.80
55151;DHT22;41041;43.162;20.538;2022-09-09T20:03:36;487.30;2380.80
55151;DHT22;41041;43.162;20.538;2022-09-09T20:06:07;487.30;2380.80
55151;DHT22;41041;43.162;20.538;2022-09-09T20:40:38;487.20;2380.80
55151;DHT22;41041;43.162;20.538;2022-09-09T20:43:04;486.90;2380.80
55151;DHT22;41041;43.162;20.538;2022-09-09T20:45:34;486.90;2380.80
55151;DHT22;41041;43.162;20.538;2022-09-09T20:48:00;486.90;2380.80
55151;DHT22;41041;43.162;20.538;2022-09-09T20:50:26;487.00;2380.80
55151;DHT22;41041;43.162;20.538;2022-09-09T20:52:52;487.00;2380.80
55151;DHT22;41041;43.162;20.538;2022-09-09T20:55:17;486.90;2380.80
55151;DHT22;41041;43.162;20.538;2022-09-09T20:57:43;486.90;2380.80
55151;DHT22;41041;43.162;20.538;2022-09-09T21:00:10;486.90;2380.80
55151;DHT22;41041;43.162;20.538;2022-09-09T21:02:38;486.90;2380.80
55151;DHT22;41041;43.162;20.538;2022-09-09T21:19:43;486.80;2380.80
55151;DHT22;41041;43.162;20.538;2022-09-09T21:22:09;486.50;2380.80
55151;DHT22;41041;43.162;20.538;2022-09-09T21:24:36;486.40;2380.80
55151;DHT22;41041;43.162;20.538;2022-09-09T21:27:05;486.40;2380.80
55151;DHT22;41041;43.162;20.538;2022-09-09T21:29:31;486.40;2380.80
55151;DHT22;41041;43.162;20.538;2022-09-09T21:31:57;486.60;2380.80
55151;DHT22;41041;43.162;20.538;2022-09-09T21:34:23;486.40;2380.80
55151;DHT22;41041;43.162;20.538;2022-09-09T21:36:56;486.50;2380.80
55151;DHT22;41041;43.162;20.538;2022-09-09T21:39:21;486.40;2380.80
55151;DHT22;41041;43.162;20.538;2022-09-09T21:41:50;486.40;2380.80
55151;DHT22;41041;43.162;20.538;2022-09-09T21:44:16;461.70;2380.80
55151;DHT22;41041;43.162;20.538;2022-09-09T21:46:48;486.40;2380.80
55151;DHT22;41041;43.162;20.538;2022-09-09T21:49:20;461.70;2380.80
55151;DHT22;41041;43.162;20.538;2022-09-09T21:51:46;461.60;2380.80
55151;DHT22;41041;43.162;20.538;2022-09-09T21:54:12;461.60;2380.80
55151;DHT22;41041;43.162;20.538;2022-09-09T21:56:38;461.70;2380.80
55151;DHT22;41041;43.162;20.538;2022-09-09T21:59:03;461.70;2380.80
55151;DHT22;41041;43.162;20.538;2022-09-09T22:01:30;486.40;2380.80
55151;DHT22;41041;43.162;20.538;2022-09-09T22:03:58;461.70;2380.80
55151;DHT22;41041;43.162;20.538;2022-09-09T22:06:25;461.70;2380.80
55151;DHT22;41041;43.162;20.538;2022-09-09T22:09:01;461.70;2380.80
55151;DHT22;41041;43.162;20.538;2022-09-09T22:11:30;461.70;2380.80
55151;DHT22;41041;43.162;20.538;2022-09-09T22:13:59;461.60;2380.80
55151;DHT22;41041;43.162;20.538;2022-09-09T22:16:25;461.60;2380.80
55151;DHT22;41041;43.162;20.538;2022-09-09T22:18:58;461.40;2380.80
55151;DHT22;41041;43.162;20.538;2022-09-09T22:21:26;461.50;2380.80
55151;DHT22;41041;43.162;20.538;2022-09-09T22:24:00;461.50;2380.80
55151;DHT22;41041;43.162;20.538;2022-09-09T22:26:33;461.40;2380.80
55151;DHT22;41041;43.162;20.538;2022-09-09T22:29:06;461.50;2380.80
55151;DHT22;41041;43.162;20.538;2022-09-09T22:31:35;461.60;2380.80
55151;DHT22;41041;43.162;20.538;2022-09-09T22:34:04;461.60;2380.80
55151;DHT22;41041;43.162;20.538;2022-09-09T22:36:30;486.40;2380.80
55151;DHT22;41041;43.162;20.538;2022-09-09T22:38:57;486.40;2380.80
55151;DHT22;41041;43.162;20.538;2022-09-09T22:41:23;461.60;2380.80
55151;DHT22;41041;43.162;20.538;2022-09-09T22:43:53;461.70;2380.80
55151;DHT22;41041;43.162;20.538;2022-09-09T22:46:20;486.40;2380.80
55151;DHT22;41041;43.162;20.538;2022-09-09T22:48:49;486.40;2380.80
55151;DHT22;41041;43.162;20.538;2022-09-09T22:51:15;461.70;2380.80
55151;DHT22;41041;43.162;20.538;2022-09-09T22:53:43;461.70;2380.80
55151;DHT22;41041;43.162;20.538;2022-09-09T22:56:24;486.40;2380.80
55151;DHT22;41041;43.162;20.538;2022-09-09T22:58:56;486.40;2380.80
55151;DHT22;41041;43.162;20.538;2022-09-09T23:01:27;461.70;2380.80
55151;DHT22;41041;43.162;20.538;2022-09-09T23:03:57;461.70;2380.80
55151;DHT22;41041;43.162;20.538;2022-09-09T23:09:42;486.50;2380.80
55151;DHT22;41041;43.162;20.538;2022-09-09T23:12:08;486.40;2380.80
55151;DHT22;41041;43.162;20.538;2022-09-09T23:14:34;486.60;2380.80
55151;DHT22;41041;43.162;20.538;2022-09-09T23:17:18;486.40;2380.80
55151;DHT22;41041;43.162;20.538;2022-09-09T23:19:46;486.40;2380.80
55151;DHT22;41041;43.162;20.538;2022-09-09T23:22:12;486.40;2380.80
55151;DHT22;41041;43.162;20.538;2022-09-09T23:24:40;486.50;2380.80
55151;DHT22;41041;43.162;20.538;2022-09-09T23:27:05;486.40;2380.80
55151;DHT22;41041;43.162;20.538;2022-09-09T23:29:32;461.70;2380.80
55151;DHT22;41041;43.162;20.538;2022-09-09T23:31:57;461.70;2380.80
55151;DHT22;41041;43.162;20.538;2022-09-09T23:34:23;461.70;2380.80
55151;DHT22;41041;43.162;20.538;2022-09-09T23:36:49;461.70;2380.80
55151;DHT22;41041;43.162;20.538;2022-09-09T23:39:15;486.40;2380.80
55151;DHT22;41041;43.162;20.538;2022-09-09T23:41:43;486.40;2380.80
55151;DHT22;41041;43.162;20.538;2022-09-09T23:44:11;486.50;2380.80
55151;DHT22;41041;43.162;20.538;2022-09-09T23:46:37;486.50;2380.80
55151;DHT22;41041;43.162;20.538;2022-09-09T23:49:03;461.70;2380.80
55151;DHT22;41041;43.162;20.538;2022-09-09T23:51:30;461.70;2380.80
55151;DHT22;41041;43.162;20.538;2022-09-09T23:53:58;461.70;2380.80
55151;DHT22;41041;43.162;20.538;2022-09-09T23:56:29;486.40;2380.80
55151;DHT22;41041;43.162;20.538;2022-09-09T23:58:56;486.40;2380.80
